Terminal Aerodrome Forecast
Issued by NWS Duluth, MN

Home | Current Version | Previous Version | Text Only | Print | Product List | Glossary On
Versions: 1 2 3 4 5 6 7 8 9 10 11 12 13 14 15 16 17 18 19 20 21 22 23 24 25 26 27 28 29
000
FTUS43 KDLH 011900 AAB
TAFINL
TAF AMD
KINL 011956Z 0120/0218 29011G17KT P6SM SCT035
     FM020100 29004KT P6SM SCT050
     FM020300 26003KT P6SM VCSH BKN060
     FM020900 26002KT P6SM SCT060=

USA.gov is the U.S. government's official web portal to all federal, state and local government web resources and services.